RLSO2: Arkansas River, Ralston, OK

Data processed at Fri Mar 09 2018 23:20


All information presented herein is the property of the government of the United States of America and may be revised or deleted at any time without prior notice.
Dissemination of this information without the expressed written consent of the Public Affairs Office, Tulsa District U.S. Army Corps of Engineers is strictly prohibited.
These data are gathered electronically and, as presented, have not undergone any form of quality control. These data are not guaranteed to be valid or correct.
Go to home page.
Go to station list.

Upstream stations:

Downstream station:
Previous Day
Next Day
Current Day
    
SHEF ID:       RLSO2     Arkansas River at Ralston, OK
STATION TYPE:  

               PRECIP     STAGE  RIV-FLOW  BAT-LOAD
                   in        ft       cfs      volt
              Ccp-Rev   Ccp-Rev   Ccp-Rev   Ccp-Rev
(US/Central)
03/07 00:00      0.00      4.70      2874     12.57
03/07 01:00      0.00      4.72      2925     12.49
03/07 02:00      0.00      4.72      2925     12.49
03/07 03:00      0.00      4.71      2899     12.49
03/07 04:00      0.00      4.72      2925     12.41
03/07 05:00      0.00      4.72      2925     12.41
03/07 06:00      0.00      4.73      2949     12.41
03/07 07:00      0.00      4.73      2949     12.41
03/07 08:00      0.00      4.73      2949     12.41
03/07 09:00      0.00      4.72      2925     12.97
03/07 10:00      0.00      4.71      2899     13.84
03/07 11:00      0.00      4.70      2874     14.08
03/07 12:00      0.00      ----      ----     14.00
03/07 13:00      0.02      4.59      2603     14.00
03/07 14:00      0.00      4.58      2579     14.00
03/07 15:00      0.00      4.57      2555     13.92
03/07 16:00      0.00      4.63      2700     13.60
03/07 17:00      0.00      4.61      2651     13.37
03/07 18:00      0.00      4.59      2603     13.21
03/07 19:00      0.00      4.60      2627     13.21
03/07 20:00      0.00      4.60      2627     12.81
03/07 21:00      0.00      4.62      2676     12.65
03/07 22:00      0.00      4.62      2676     12.57
03/07 23:00      0.00      4.63      2700     12.57